NKS528 KFLL-KJAX
Flight info
| Callsign | NKS528 |
|---|---|
| Flight time | 0h 54m |
| Altitude | 30000 |
| Route | FRSBE2 STYMY ORL/N0422F310 HAINY QUBEN2 |
| Aircraft | A20N/M-SDE2E3FGHIRWXY/LB1 |
Departure
| Time | 2026-05-07 18:31 |
|---|---|
| Airport | Fort Lauderdale Hollywood International Airport (KFLL) |
Arrival
| Time | 2026-05-07 19:26 |
|---|---|
| Airport | Jacksonville International Airport (KJAX) |
| Time | Latitude | Longitude | Altitude | Speed | Heading |
|---|---|---|---|---|---|
| 2026-05-07 18:21 | 26.06888 | -80.14474 | 37 ft | 0 kts | 2° |
| 2026-05-07 18:24 | 26.06884 | -80.14475 | 37 ft | 5 kts | 2° |
| 2026-05-07 18:25 | 26.06860 | -80.14476 | 38 ft | 3 kts | 4° |
| 2026-05-07 18:25 | 26.06839 | -80.14476 | 38 ft | 3 kts | 341° |
| 2026-05-07 18:25 | 26.06824 | -80.14459 | 38 ft | 3 kts | 272° |
| 2026-05-07 18:25 | 26.06824 | -80.14451 | 38 ft | 0 kts | 272° |
| 2026-05-07 18:27 | 26.06824 | -80.14455 | 38 ft | 2 kts | 271° |
| 2026-05-07 18:27 | 26.06824 | -80.14476 | 38 ft | 4 kts | 271° |
| 2026-05-07 18:27 | 26.06823 | -80.14524 | 38 ft | 9 kts | 259° |
| 2026-05-07 18:27 | 26.06776 | -80.14596 | 38 ft | 13 kts | 237° |
| 2026-05-07 18:28 | 26.06766 | -80.14705 | 38 ft | 15 kts | 270° |
| 2026-05-07 18:28 | 26.06767 | -80.14829 | 39 ft | 17 kts | 270° |
| 2026-05-07 18:28 | 26.06769 | -80.14970 | 37 ft | 20 kts | 270° |
| 2026-05-07 18:28 | 26.06766 | -80.15108 | 35 ft | 8 kts | 253° |
| 2026-05-07 18:29 | 26.06723 | -80.15132 | 36 ft | 7 kts | 183° |
| 2026-05-07 18:29 | 26.06697 | -80.15172 | 36 ft | 8 kts | 261° |
| 2026-05-07 18:29 | 26.06696 | -80.15250 | 36 ft | 12 kts | 271° |
| 2026-05-07 18:29 | 26.06698 | -80.15358 | 34 ft | 16 kts | 270° |
| 2026-05-07 18:30 | 26.06698 | -80.15509 | 29 ft | 23 kts | 270° |
| 2026-05-07 18:30 | 26.06684 | -80.15654 | 28 ft | 15 kts | 226° |
| 2026-05-07 18:30 | 26.06626 | -80.15661 | 26 ft | 9 kts | 181° |
| 2026-05-07 18:30 | 26.06586 | -80.15614 | 27 ft | 12 kts | 91° |
| 2026-05-07 18:31 | 26.06585 | -80.15288 | 33 ft | 76 kts | 91° |
| 2026-05-07 18:31 | 26.06581 | -80.14478 | 46 ft | 131 kts | 91° |
| 2026-05-07 18:31 | 26.06598 | -80.13365 | 350 ft | 148 kts | 92° |
| 2026-05-07 18:31 | 26.06608 | -80.12194 | 797 ft | 158 kts | 91° |
| 2026-05-07 18:32 | 26.06704 | -80.10964 | 1477 ft | 160 kts | 75° |
| 2026-05-07 18:32 | 26.07208 | -80.09841 | 2008 ft | 170 kts | 56° |
| 2026-05-07 18:32 | 26.07927 | -80.08700 | 2347 ft | 191 kts | 56° |
| 2026-05-07 18:32 | 26.08842 | -80.07506 | 2709 ft | 215 kts | 39° |
| 2026-05-07 18:33 | 26.10169 | -80.06639 | 3272 ft | 235 kts | 19° |
| 2026-05-07 18:33 | 26.11783 | -80.06015 | 3877 ft | 256 kts | 18° |
| 2026-05-07 18:33 | 26.13526 | -80.05331 | 4560 ft | 272 kts | 18° |
| 2026-05-07 18:33 | 26.15384 | -80.04915 | 5505 ft | 275 kts | 359° |
| 2026-05-07 18:34 | 26.17269 | -80.05256 | 6428 ft | 278 kts | 341° |
| 2026-05-07 18:34 | 26.19113 | -80.05980 | 7255 ft | 283 kts | 340° |
| 2026-05-07 18:34 | 26.20968 | -80.06757 | 8103 ft | 287 kts | 333° |
| 2026-05-07 18:34 | 26.22522 | -80.08148 | 8917 ft | 291 kts | 307° |
| 2026-05-07 18:35 | 26.23465 | -80.10155 | 9748 ft | 296 kts | 291° |
| 2026-05-07 18:35 | 26.24222 | -80.12310 | 10450 ft | 304 kts | 290° |
| 2026-05-07 18:35 | 26.25011 | -80.14591 | 10755 ft | 327 kts | 291° |
| 2026-05-07 18:35 | 26.26041 | -80.16941 | 11057 ft | 347 kts | 301° |
| 2026-05-07 18:36 | 26.27346 | -80.19218 | 11801 ft | 349 kts | 302° |
| 2026-05-07 18:36 | 26.28651 | -80.21507 | 12625 ft | 351 kts | 302° |
| 2026-05-07 18:36 | 26.29958 | -80.23812 | 13431 ft | 353 kts | 302° |
| 2026-05-07 18:36 | 26.31277 | -80.26141 | 14186 ft | 357 kts | 302° |
| 2026-05-07 18:37 | 26.32590 | -80.28457 | 14880 ft | 359 kts | 302° |
| 2026-05-07 18:37 | 26.33930 | -80.30819 | 15613 ft | 362 kts | 302° |
| 2026-05-07 18:37 | 26.35275 | -80.33190 | 16348 ft | 363 kts | 302° |
| 2026-05-07 18:37 | 26.36631 | -80.35582 | 17062 ft | 366 kts | 302° |
| 2026-05-07 18:38 | 26.37996 | -80.37989 | 17755 ft | 368 kts | 302° |
| 2026-05-07 18:38 | 26.39369 | -80.40412 | 18433 ft | 371 kts | 302° |
| 2026-05-07 18:38 | 26.40751 | -80.42852 | 19020 ft | 373 kts | 302° |
| 2026-05-07 18:38 | 26.42138 | -80.45303 | 19614 ft | 375 kts | 302° |
| 2026-05-07 18:39 | 26.43536 | -80.47774 | 20176 ft | 378 kts | 301° |
| 2026-05-07 18:39 | 26.44945 | -80.50264 | 20749 ft | 380 kts | 301° |
| 2026-05-07 18:39 | 26.46361 | -80.52764 | 21318 ft | 383 kts | 302° |
| 2026-05-07 18:39 | 26.48083 | -80.55048 | 21870 ft | 388 kts | 316° |
| 2026-05-07 18:40 | 26.50300 | -80.56799 | 22408 ft | 395 kts | 330° |
| 2026-05-07 18:40 | 26.52892 | -80.57897 | 22933 ft | 403 kts | 341° |
| 2026-05-07 18:40 | 26.55605 | -80.58748 | 23449 ft | 407 kts | 341° |
| 2026-05-07 18:40 | 26.58340 | -80.59605 | 23902 ft | 410 kts | 341° |
| 2026-05-07 18:41 | 26.61092 | -80.60472 | 24377 ft | 412 kts | 340° |
| 2026-05-07 18:41 | 26.63857 | -80.61347 | 24814 ft | 414 kts | 340° |
| 2026-05-07 18:41 | 26.66638 | -80.62230 | 25251 ft | 417 kts | 340° |
| 2026-05-07 18:41 | 26.69433 | -80.63119 | 25687 ft | 419 kts | 340° |
| 2026-05-07 18:42 | 26.72246 | -80.64014 | 26111 ft | 421 kts | 340° |
| 2026-05-07 18:42 | 26.75074 | -80.64915 | 26526 ft | 424 kts | 340° |
| 2026-05-07 18:42 | 26.77879 | -80.65809 | 26930 ft | 426 kts | 340° |
| 2026-05-07 18:42 | 26.80739 | -80.66720 | 27323 ft | 429 kts | 340° |
| 2026-05-07 18:43 | 26.83620 | -80.67639 | 27708 ft | 431 kts | 340° |
| 2026-05-07 18:43 | 26.86516 | -80.68563 | 28084 ft | 434 kts | 340° |
| 2026-05-07 18:43 | 26.89422 | -80.69491 | 28471 ft | 436 kts | 340° |
| 2026-05-07 18:43 | 26.92345 | -80.70432 | 28832 ft | 438 kts | 339° |
| 2026-05-07 18:44 | 26.95244 | -80.71486 | 29182 ft | 439 kts | 337° |
| 2026-05-07 18:44 | 26.98133 | -80.72606 | 29534 ft | 441 kts | 336° |
| 2026-05-07 18:44 | 27.01037 | -80.73739 | 29887 ft | 443 kts | 336° |
| 2026-05-07 18:44 | 27.03961 | -80.74868 | 30029 ft | 445 kts | 336° |
| 2026-05-07 18:45 | 27.06889 | -80.75988 | 30035 ft | 445 kts | 336° |
| 2026-05-07 18:45 | 27.12747 | -80.78211 | 30047 ft | 444 kts | 336° |
| 2026-05-07 18:46 | 27.18608 | -80.80433 | 30039 ft | 445 kts | 336° |
| 2026-05-07 18:46 | 27.24467 | -80.82656 | 30034 ft | 444 kts | 336° |
| 2026-05-07 18:47 | 27.30329 | -80.84884 | 30038 ft | 445 kts | 336° |
| 2026-05-07 18:47 | 27.36166 | -80.87173 | 30037 ft | 443 kts | 335° |
| 2026-05-07 18:48 | 27.40604 | -80.89021 | 30035 ft | 443 kts | 335° |
| 2026-05-07 18:48 | 27.46035 | -80.91278 | 30037 ft | 443 kts | 335° |
| 2026-05-07 18:49 | 27.51825 | -80.93669 | 30033 ft | 443 kts | 335° |
| 2026-05-07 18:49 | 27.57578 | -80.96041 | 30028 ft | 443 kts | 335° |
| 2026-05-07 18:50 | 27.63371 | -80.98432 | 30028 ft | 443 kts | 335° |
| 2026-05-07 18:50 | 27.69159 | -81.00824 | 30033 ft | 443 kts | 335° |
| 2026-05-07 18:51 | 27.74944 | -81.03217 | 30032 ft | 443 kts | 334° |
| 2026-05-07 18:51 | 27.80726 | -81.05612 | 30031 ft | 442 kts | 334° |
| 2026-05-07 18:52 | 27.86511 | -81.08011 | 30030 ft | 443 kts | 334° |
| 2026-05-07 18:52 | 27.92290 | -81.10410 | 30030 ft | 442 kts | 334° |
| 2026-05-07 18:53 | 27.98072 | -81.12813 | 30030 ft | 443 kts | 334° |
| 2026-05-07 18:53 | 28.03852 | -81.15218 | 30035 ft | 442 kts | 334° |
| 2026-05-07 18:54 | 28.09716 | -81.17407 | 30038 ft | 444 kts | 337° |
| 2026-05-07 18:54 | 28.15621 | -81.19481 | 30046 ft | 444 kts | 337° |
| 2026-05-07 18:55 | 28.21515 | -81.21594 | 30058 ft | 444 kts | 336° |
| 2026-05-07 18:55 | 28.27400 | -81.23725 | 30048 ft | 444 kts | 336° |
| 2026-05-07 18:56 | 28.33279 | -81.25858 | 30053 ft | 444 kts | 336° |
| 2026-05-07 18:56 | 28.39159 | -81.27994 | 30055 ft | 444 kts | 336° |
| 2026-05-07 18:57 | 28.45035 | -81.30131 | 30055 ft | 443 kts | 336° |
| 2026-05-07 18:57 | 28.50910 | -81.32269 | 30046 ft | 443 kts | 336° |
| 2026-05-07 18:58 | 28.57016 | -81.33666 | 30060 ft | 454 kts | 349° |
| 2026-05-07 18:58 | 28.63346 | -81.34081 | 30050 ft | 455 kts | 350° |
| 2026-05-07 18:59 | 28.69678 | -81.34506 | 30045 ft | 456 kts | 350° |
| 2026-05-07 18:59 | 28.76004 | -81.34928 | 30047 ft | 456 kts | 350° |
| 2026-05-07 19:00 | 28.82342 | -81.35346 | 30026 ft | 456 kts | 350° |
| 2026-05-07 19:00 | 28.88675 | -81.35765 | 30015 ft | 456 kts | 350° |
| 2026-05-07 19:01 | 28.95015 | -81.36184 | 30022 ft | 456 kts | 349° |
| 2026-05-07 19:01 | 29.01315 | -81.36604 | 30028 ft | 457 kts | 349° |
| 2026-05-07 19:02 | 29.07660 | -81.37036 | 30028 ft | 457 kts | 349° |
| 2026-05-07 19:02 | 29.14004 | -81.37469 | 30025 ft | 457 kts | 349° |
| 2026-05-07 19:02 | 29.17163 | -81.37684 | 29786 ft | 453 kts | 349° |
| 2026-05-07 19:03 | 29.20315 | -81.37899 | 28898 ft | 454 kts | 349° |
| 2026-05-07 19:03 | 29.23491 | -81.38119 | 27657 ft | 461 kts | 349° |
| 2026-05-07 19:03 | 29.26695 | -81.38341 | 26645 ft | 461 kts | 349° |
| 2026-05-07 19:03 | 29.29875 | -81.38554 | 25855 ft | 455 kts | 350° |
| 2026-05-07 19:04 | 29.30941 | -81.38624 | 25593 ft | 453 kts | 350° |
| 2026-05-07 19:04 | 29.34316 | -81.38846 | 24753 ft | 447 kts | 350° |
| 2026-05-07 19:04 | 29.37400 | -81.39051 | 23986 ft | 442 kts | 350° |
| 2026-05-07 19:04 | 29.40457 | -81.39256 | 23157 ft | 437 kts | 350° |
| 2026-05-07 19:05 | 29.43466 | -81.39458 | 22360 ft | 430 kts | 350° |
| 2026-05-07 19:05 | 29.46437 | -81.39659 | 21532 ft | 425 kts | 350° |
| 2026-05-07 19:05 | 29.49372 | -81.39858 | 20732 ft | 420 kts | 350° |
| 2026-05-07 19:05 | 29.52271 | -81.40062 | 19951 ft | 414 kts | 348° |
| 2026-05-07 19:06 | 29.55019 | -81.40740 | 19298 ft | 394 kts | 333° |
| 2026-05-07 19:06 | 29.59235 | -81.44146 | 18215 ft | 359 kts | 309° |
| 2026-05-07 19:06 | 29.60945 | -81.46178 | 17705 ft | 349 kts | 309° |
| 2026-05-07 19:07 | 29.62612 | -81.48150 | 17216 ft | 340 kts | 309° |
| 2026-05-07 19:07 | 29.64242 | -81.50071 | 16737 ft | 332 kts | 309° |
| 2026-05-07 19:07 | 29.65838 | -81.51946 | 16262 ft | 324 kts | 309° |
| 2026-05-07 19:07 | 29.67400 | -81.53781 | 15805 ft | 318 kts | 309° |
| 2026-05-07 19:08 | 29.68953 | -81.55604 | 15337 ft | 331 kts | 309° |
| 2026-05-07 19:08 | 29.70635 | -81.57569 | 14924 ft | 354 kts | 310° |
| 2026-05-07 19:08 | 29.72381 | -81.59586 | 14536 ft | 358 kts | 310° |
| 2026-05-07 19:08 | 29.74130 | -81.61599 | 13893 ft | 362 kts | 310° |
| 2026-05-07 19:09 | 29.76013 | -81.63518 | 13183 ft | 363 kts | 321° |
| 2026-05-07 19:09 | 29.78330 | -81.64790 | 12480 ft | 368 kts | 339° |
| 2026-05-07 19:09 | 29.80835 | -81.65241 | 11822 ft | 370 kts | 350° |
| 2026-05-07 19:09 | 29.83384 | -81.65463 | 11153 ft | 366 kts | 351° |
| 2026-05-07 19:10 | 29.85910 | -81.65680 | 10500 ft | 362 kts | 351° |
| 2026-05-07 19:10 | 29.88408 | -81.65899 | 9848 ft | 359 kts | 351° |
| 2026-05-07 19:10 | 29.90884 | -81.66119 | 9148 ft | 355 kts | 351° |
| 2026-05-07 19:10 | 29.93339 | -81.66340 | 8457 ft | 352 kts | 351° |
| 2026-05-07 19:11 | 29.95765 | -81.66596 | 7811 ft | 349 kts | 349° |
| 2026-05-07 19:11 | 29.98171 | -81.66934 | 7134 ft | 347 kts | 349° |
| 2026-05-07 19:11 | 30.00554 | -81.67288 | 6476 ft | 343 kts | 348° |
| 2026-05-07 19:11 | 30.02909 | -81.67639 | 5787 ft | 340 kts | 349° |
| 2026-05-07 19:12 | 30.05246 | -81.67980 | 5118 ft | 337 kts | 349° |
| 2026-05-07 19:12 | 30.07568 | -81.68312 | 4446 ft | 335 kts | 349° |
| 2026-05-07 19:12 | 30.09878 | -81.68637 | 3763 ft | 334 kts | 349° |
| 2026-05-07 19:12 | 30.12168 | -81.68957 | 3271 ft | 326 kts | 349° |
| 2026-05-07 19:13 | 30.14359 | -81.69259 | 3077 ft | 307 kts | 349° |
| 2026-05-07 19:13 | 30.16409 | -81.69396 | 3018 ft | 286 kts | 4° |
| 2026-05-07 19:13 | 30.18309 | -81.68949 | 3027 ft | 280 kts | 9° |
| 2026-05-07 19:13 | 30.20178 | -81.68448 | 3046 ft | 271 kts | 9° |
| 2026-05-07 19:14 | 30.22011 | -81.67958 | 3009 ft | 267 kts | 9° |
| 2026-05-07 19:14 | 30.23712 | -81.67154 | 3040 ft | 268 kts | 33° |
| 2026-05-07 19:14 | 30.25060 | -81.65649 | 3020 ft | 271 kts | 45° |
| 2026-05-07 19:14 | 30.26345 | -81.64060 | 3043 ft | 269 kts | 45° |
| 2026-05-07 19:15 | 30.27590 | -81.62497 | 3017 ft | 259 kts | 45° |
| 2026-05-07 19:15 | 30.28381 | -81.61501 | 3024 ft | 249 kts | 45° |
| 2026-05-07 19:15 | 30.29526 | -81.60078 | 3035 ft | 235 kts | 45° |
| 2026-05-07 19:15 | 30.30969 | -81.58263 | 3010 ft | 229 kts | 45° |
| 2026-05-07 19:16 | 30.31700 | -81.57362 | 3015 ft | 236 kts | 45° |
| 2026-05-07 19:16 | 30.32823 | -81.55960 | 3018 ft | 237 kts | 45° |
| 2026-05-07 19:16 | 30.33939 | -81.54582 | 3032 ft | 234 kts | 45° |
| 2026-05-07 19:16 | 30.35047 | -81.53198 | 3011 ft | 233 kts | 45° |
| 2026-05-07 19:17 | 30.36155 | -81.51812 | 3007 ft | 238 kts | 45° |
| 2026-05-07 19:17 | 30.37283 | -81.50420 | 3022 ft | 234 kts | 45° |
| 2026-05-07 19:17 | 30.38377 | -81.49068 | 3012 ft | 227 kts | 45° |
| 2026-05-07 19:17 | 30.39430 | -81.47751 | 3058 ft | 223 kts | 44° |
| 2026-05-07 19:18 | 30.40503 | -81.46400 | 2989 ft | 232 kts | 45° |
| 2026-05-07 19:18 | 30.41584 | -81.45072 | 3011 ft | 220 kts | 45° |
| 2026-05-07 19:18 | 30.42728 | -81.44045 | 3034 ft | 205 kts | 21° |
| 2026-05-07 19:18 | 30.44078 | -81.43380 | 3038 ft | 208 kts | 17° |
| 2026-05-07 19:19 | 30.45402 | -81.42727 | 3019 ft | 206 kts | 18° |
| 2026-05-07 19:19 | 30.46731 | -81.42099 | 3007 ft | 206 kts | 13° |
| 2026-05-07 19:19 | 30.48093 | -81.42066 | 3018 ft | 192 kts | 335° |
| 2026-05-07 19:19 | 30.49182 | -81.42891 | 2998 ft | 185 kts | 315° |
| 2026-05-07 19:20 | 30.50198 | -81.43792 | 3016 ft | 185 kts | 318° |
| 2026-05-07 19:20 | 30.51232 | -81.44690 | 3007 ft | 188 kts | 317° |
| 2026-05-07 19:20 | 30.52282 | -81.45599 | 3010 ft | 186 kts | 318° |
| 2026-05-07 19:20 | 30.53266 | -81.46448 | 3000 ft | 166 kts | 314° |
| 2026-05-07 19:21 | 30.53771 | -81.47556 | 3028 ft | 158 kts | 276° |
| 2026-05-07 19:21 | 30.53873 | -81.48806 | 3001 ft | 155 kts | 270° |
| 2026-05-07 19:21 | 30.53894 | -81.50064 | 2874 ft | 159 kts | 267° |
| 2026-05-07 19:21 | 30.53855 | -81.51338 | 2711 ft | 153 kts | 266° |
| 2026-05-07 19:22 | 30.53781 | -81.52531 | 2501 ft | 141 kts | 264° |
| 2026-05-07 19:22 | 30.53683 | -81.53651 | 2335 ft | 136 kts | 263° |
| 2026-05-07 19:22 | 30.53568 | -81.54685 | 2164 ft | 124 kts | 261° |
| 2026-05-07 19:22 | 30.53445 | -81.55623 | 2026 ft | 114 kts | 259° |
| 2026-05-07 19:23 | 30.53297 | -81.56543 | 1867 ft | 120 kts | 258° |
| 2026-05-07 19:23 | 30.53117 | -81.57515 | 1716 ft | 124 kts | 256° |
| 2026-05-07 19:23 | 30.52912 | -81.58485 | 1560 ft | 125 kts | 255° |
| 2026-05-07 19:23 | 30.52690 | -81.59451 | 1422 ft | 124 kts | 255° |
| 2026-05-07 19:24 | 30.52462 | -81.60367 | 1238 ft | 113 kts | 253° |
| 2026-05-07 19:24 | 30.52227 | -81.61251 | 1099 ft | 119 kts | 253° |
| 2026-05-07 19:24 | 30.51964 | -81.62204 | 943 ft | 125 kts | 252° |
| 2026-05-07 19:24 | 30.51684 | -81.63190 | 768 ft | 130 kts | 249° |
| 2026-05-07 19:25 | 30.51394 | -81.64183 | 608 ft | 130 kts | 251° |
| 2026-05-07 19:25 | 30.51109 | -81.65150 | 343 ft | 124 kts | 249° |
| 2026-05-07 19:25 | 30.50827 | -81.66082 | 227 ft | 124 kts | 249° |
| 2026-05-07 19:25 | 30.50541 | -81.67013 | 63 ft | 119 kts | 248° |
| 2026-05-07 19:26 | 30.50278 | -81.67849 | 36 ft | 95 kts | 251° |
| 2026-05-07 19:26 | 30.50115 | -81.68390 | 40 ft | 50 kts | 249° |
| 2026-05-07 19:26 | 30.50030 | -81.68682 | 37 ft | 34 kts | 250° |
| 2026-05-07 19:26 | 30.49950 | -81.68929 | 34 ft | 31 kts | 248° |
| 2026-05-07 19:27 | 30.49868 | -81.69134 | 39 ft | 26 kts | 234° |
| 2026-05-07 19:27 | 30.49726 | -81.69200 | 40 ft | 22 kts | 166° |
| 2026-05-07 19:27 | 30.49590 | -81.69114 | 41 ft | 23 kts | 149° |
| 2026-05-07 19:27 | 30.49444 | -81.69015 | 38 ft | 25 kts | 147° |
| 2026-05-07 19:28 | 30.49375 | -81.68921 | 38 ft | 14 kts | 85° |
| 2026-05-07 19:28 | 30.49386 | -81.68795 | 38 ft | 18 kts | 85° |
| 2026-05-07 19:28 | 30.49354 | -81.68703 | 38 ft | 8 kts | 173° |
| 2026-05-07 19:28 | 30.49298 | -81.68690 | 39 ft | 7 kts | 142° |
| 2026-05-07 19:29 | 30.49284 | -81.68620 | 39 ft | 11 kts | 104° |
| 2026-05-07 19:29 | 30.49280 | -81.68602 | 39 ft | 0 kts | 105° |